Terminal Aerodrome Forecast
Issued by NWS

Home | Current Version | Previous Version | Graphics & Text | Print | Product List | Glossary On
Versions: 1 2 3 4 5 6 7 8 9 10 11 12 13
000
FTUS45 KGGW 161730
TAFGDV
TAF
KGDV 161730Z 1618/1718 22010KT P6SM SCT130
     FM170000 21007KT 3SM BR SCT003 BKN060
     FM170600 22007KT 1SM BR SCT003 BKN090
     FM170800 23008KT 3SM BR SCT003 BKN110 WS020/26040KT
     FM171000 23008KT P6SM BKN110 WS020/27045KT
     FM171700 25011KT P6SM FEW150 SCT160=

USA.gov is the U.S. government's official web portal to all federal, state and local government web resources and services.